Time;durP1;ratioP1;P1;durP2;ratioP2;P2;SDS_P1;SDS_P2;PMS_P1;PMS_P2;Temp;Humidity;BMP_temperature;BMP_pressure;BME280_temperature;BME280_humidity;BME280_pressure;Samples;Min_cycle;Max_cycle;Signal;HPM_P1;HPM_P2
2022/07/20 00:02:06;;;;;;;;;;;;;;;26.58;32.85;101181.47;5074039;28;20368;-36
2022/07/20 00:04:31;;;;;;;;;;;;;;;26.54;32.81;101174.94;5074288;28;19966;-36
2022/07/20 00:06:56;;;;;;;;;;;;;;;26.48;32.59;101173.50;5074593;28;20317;-36
2022/07/20 00:12:05;;;;;;;;;;;;;;;26.40;33.00;101173.19;5074534;28;19922;-36
2022/07/20 00:14:30;;;;;;;;;;;;;;;26.35;33.24;101167.81;5073982;28;19916;-36
2022/07/20 00:16:56;;;;;;;;;;;;;;;26.31;33.37;101174.34;5073786;28;19916;-36
2022/07/20 00:19:21;;;;;;;;;;;;;;;26.26;33.51;101177.28;5074011;28;19913;-36
2022/07/20 00:21:47;;;;;;;;;;;;;;;26.19;33.38;101181.34;5074482;28;20350;-36
2022/07/20 00:24:12;;;;;;;;;;;;;;;26.12;33.77;101178.28;5073836;28;20367;-36
2022/07/20 00:26:37;;;;;;;;;;;;;;;26.07;33.96;101178.44;5074358;28;19912;-36
2022/07/20 00:29:02;;;;;;;;;;;;;;;26.02;33.95;101169.50;5074079;28;19913;-36
2022/07/20 00:31:28;;;;;;;;;;;;;;;25.95;34.01;101181.06;5074252;28;19913;-36
2022/07/20 00:33:53;;;;;;;;;;;;;;;25.89;33.82;101176.81;5073779;28;20277;-36
2022/07/20 00:36:19;;;;;;;;;;;;;;;25.84;33.93;101172.25;5074397;28;19916;-36
2022/07/20 00:38:45;;;;;;;;;;;;;;;25.82;34.00;101177.31;5073653;28;20002;-36
2022/07/20 00:41:10;;;;;;;;;;;;;;;25.80;34.45;101174.06;5074470;28;19959;-36
2022/07/20 00:43:54;;;;;;;;;;;;;;;25.77;34.50;101174.72;5073875;28;19952;-36
2022/07/20 00:46:19;;;;;;;;;;;;;;;25.70;34.40;101174.34;5073269;28;19912;-36
2022/07/20 00:48:44;;;;;;;;;;;;;;;25.64;34.75;101190.31;5073624;28;19919;-36
2022/07/20 00:51:09;;;;;;;;;;;;;;;25.62;36.36;101245.22;5073499;28;19912;-37
2022/07/20 00:53:35;;;;;;;;;;;;;;;25.54;36.11;101192.59;5073275;28;19923;-36
2022/07/20 00:56:00;;;;;;;;;;;;;;;25.50;35.25;101172.22;5074190;28;19955;-36
2022/07/20 00:58:25;;;;;;;;;;;;;;;25.47;35.24;101176.44;5073885;28;19951;-36
2022/07/20 01:00:51;;;;;;;;;;;;;;;25.51;34.94;101182.13;5073383;28;19912;-36
2022/07/20 01:03:16;;;;;;;;;;;;;;;25.52;34.70;101195.66;5074106;28;19912;-36
2022/07/20 01:05:41;;;;;;;;;;;;;;;25.56;34.92;101193.06;5073606;28;20353;-36
2022/07/20 01:08:06;;;;;;;;;;;;;;;25.56;34.83;101185.56;5073341;28;19919;-36
2022/07/20 01:10:31;;;;;;;;;;;;;;;25.54;34.78;101193.41;5073213;28;19912;-36
2022/07/20 01:12:57;;;;;;;;;;;;;;;25.54;35.49;101234.94;5074068;28;19924;-36
2022/07/20 01:15:22;;;;;;;;;;;;;;;25.52;35.53;101181.81;5073716;28;20013;-36
2022/07/20 01:17:47;;;;;;;;;;;;;;;25.48;35.26;101224.34;5073440;28;20015;-36
2022/07/20 01:20:17;;;;;;;;;;;;;;;25.43;36.42;101201.19;5073341;28;19912;-36
2022/07/20 01:22:43;;;;;;;;;;;;;;;25.36;35.56;101200.84;5073431;28;19958;-36
2022/07/20 01:25:08;;;;;;;;;;;;;;;25.36;35.43;101208.34;5073450;28;19970;-36
2022/07/20 01:27:34;;;;;;;;;;;;;;;25.35;35.23;101201.19;5076919;28;19916;-36
2022/07/20 01:29:59;;;;;;;;;;;;;;;25.33;35.22;101204.28;5077166;28;20268;-36
2022/07/20 01:32:24;;;;;;;;;;;;;;;25.28;35.53;101196.13;5077749;28;19919;-36
2022/07/20 01:34:49;;;;;;;;;;;;;;;25.20;35.54;101194.13;5077109;28;19913;-36
2022/07/20 01:37:15;;;;;;;;;;;;;;;25.15;35.83;101202.59;5077882;28;20007;-36
2022/07/20 01:39:40;;;;;;;;;;;;;;;25.11;35.79;101207.13;5077034;28;19973;-36
2022/07/20 01:42:05;;;;;;;;;;;;;;;25.04;35.89;101198.47;5076790;28;19919;-36
2022/07/20 01:44:30;;;;;;;;;;;;;;;24.97;35.92;101185.06;5077118;28;19913;-36
2022/07/20 01:46:55;;;;;;;;;;;;;;;24.90;36.44;101174.47;5077631;28;19954;-36
2022/07/20 01:49:22;;;;;;;;;;;;;;;24.86;37.03;101178.19;5076419;28;20074;-37
2022/07/20 01:51:47;;;;;;;;;;;;;;;24.79;37.43;101188.88;5076303;28;19912;-36
2022/07/20 01:54:12;;;;;;;;;;;;;;;24.71;36.97;101193.25;5076751;28;19920;-36
2022/07/20 01:56:41;;;;;;;;;;;;;;;24.66;36.90;101188.69;5077223;28;19912;-36
2022/07/20 01:59:06;;;;;;;;;;;;;;;24.62;36.97;101189.63;5076347;28;19912;-36
2022/07/20 02:01:32;;;;;;;;;;;;;;;24.59;37.14;101185.53;5077636;28;20400;-36
2022/07/20 02:03:57;;;;;;;;;;;;;;;24.54;37.15;101193.97;5076839;28;20225;-36
2022/07/20 02:06:22;;;;;;;;;;;;;;;24.52;37.17;101193.47;5076409;28;20335;-36
2022/07/20 02:08:47;;;;;;;;;;;;;;;24.51;36.95;101204.88;5076792;28;20265;-36
2022/07/20 02:11:12;;;;;;;;;;;;;;;24.49;37.29;101202.41;5076485;28;20008;-36
2022/07/20 02:13:38;;;;;;;;;;;;;;;24.47;37.75;101204.69;5076368;28;19912;-36
2022/07/20 02:16:15;;;;;;;;;;;;;;;24.46;38.39;101238.97;5076359;28;19917;-37
2022/07/20 02:18:47;;;;;;;;;;;;;;;24.47;38.15;101232.31;5077055;28;19912;-36
2022/07/20 02:21:14;;;;;;;;;;;;;;;24.50;38.32;101234.47;5076519;28;19913;-36
2022/07/20 02:23:39;;;;;;;;;;;;;;;24.51;37.65;101244.38;5076378;28;19913;-36
2022/07/20 02:26:04;;;;;;;;;;;;;;;24.55;37.47;101233.50;5076224;28;19992;-36
2022/07/20 02:28:29;;;;;;;;;;;;;;;24.56;37.58;101232.38;5076463;28;19912;-36
2022/07/20 02:30:55;;;;;;;;;;;;;;;24.55;37.64;101220.50;5076346;28;20292;-36
2022/07/20 02:33:20;;;;;;;;;;;;;;;24.54;37.23;101226.34;5075820;28;19927;-36
2022/07/20 02:35:45;;;;;;;;;;;;;;;24.54;38.09;101226.34;5075958;28;19919;-36
2022/07/20 02:38:10;;;;;;;;;;;;;;;24.54;37.74;101232.66;5074837;28;19919;-36
2022/07/20 02:40:35;;;;;;;;;;;;;;;24.54;37.74;101234.63;5075606;28;19912;-36
2022/07/20 02:43:01;;;;;;;;;;;;;;;24.53;39.67;101224.72;5076529;28;19913;-36
2022/07/20 02:45:26;;;;;;;;;;;;;;;24.47;37.98;101229.56;5075851;28;19913;-36
2022/07/20 02:47:51;;;;;;;;;;;;;;;24.44;37.84;101232.94;5076073;28;19916;-36
2022/07/20 02:50:16;;;;;;;;;;;;;;;24.46;38.21;101241.75;5076104;28;19916;-36
2022/07/20 02:52:42;;;;;;;;;;;;;;;24.46;38.11;101241.75;5075766;28;19946;-36
2022/07/20 02:55:08;;;;;;;;;;;;;;;24.43;38.93;101247.09;5076377;28;20345;-36
2022/07/20 02:57:33;;;;;;;;;;;;;;;24.38;38.96;101243.31;5076069;28;19916;-36
2022/07/20 02:59:58;;;;;;;;;;;;;;;24.35;39.22;101227.34;5075225;28;20003;-36
2022/07/20 03:02:24;;;;;;;;;;;;;;;24.30;39.37;101237.69;5076330;28;19913;-36
2022/07/20 03:04:49;;;;;;;;;;;;;;;24.25;39.30;101233.09;5076060;28;19955;-36
2022/07/20 03:07:14;;;;;;;;;;;;;;;24.16;40.01;101232.25;5074707;28;20250;-35
2022/07/20 03:09:39;;;;;;;;;;;;;;;24.12;39.31;101239.50;5075605;28;19982;-35
2022/07/20 03:12:05;;;;;;;;;;;;;;;24.08;39.14;101253.13;5075321;28;19912;-35
2022/07/20 03:14:30;;;;;;;;;;;;;;;24.09;40.90;101254.75;5074802;28;19912;-36
2022/07/20 03:16:55;;;;;;;;;;;;;;;24.04;41.40;101246.59;5075189;28;19999;-36
2022/07/20 03:19:20;;;;;;;;;;;;;;;23.97;41.58;101245.41;5074881;28;19913;-36
2022/07/20 03:21:46;;;;;;;;;;;;;;;23.89;41.30;101241.41;5075910;28;20008;-36
2022/07/20 03:24:11;;;;;;;;;;;;;;;23.84;42.10;101250.63;5075583;28;20019;-36
2022/07/20 03:26:36;;;;;;;;;;;;;;;23.78;43.69;101251.88;5075096;28;20382;-36
2022/07/20 03:29:01;;;;;;;;;;;;;;;23.72;42.48;101249.53;5074683;28;19941;-35
2022/07/20 03:31:26;;;;;;;;;;;;;;;23.64;42.49;101260.19;5074985;28;19920;-35
2022/07/20 03:33:52;;;;;;;;;;;;;;;23.58;44.10;101266.09;5075115;28;19912;-36
2022/07/20 03:36:17;;;;;;;;;;;;;;;23.54;43.51;101274.16;5074757;28;19955;-36
2022/07/20 03:38:42;;;;;;;;;;;;;;;23.49;43.85;101267.94;5075492;28;19924;-36
2022/07/20 03:41:07;;;;;;;;;;;;;;;23.44;44.47;101281.84;5075246;28;20001;-36
2022/07/20 03:43:32;;;;;;;;;;;;;;;23.37;46.08;101277.53;5074327;28;20405;-35
2022/07/20 03:45:58;;;;;;;;;;;;;;;23.32;51.40;101288.69;5074638;28;19965;-35
2022/07/20 03:48:23;;;;;;;;;;;;;;;23.26;48.95;101300.94;5074793;28;19951;-36
2022/07/20 03:50:48;;;;;;;;;;;;;;;23.23;47.73;101304.31;5074191;28;19924;-36
2022/07/20 03:53:13;;;;;;;;;;;;;;;23.20;49.71;101318.72;5074880;28;20237;-36
2022/07/20 03:55:39;;;;;;;;;;;;;;;23.20;51.75;101318.72;5074943;28;20222;-36
2022/07/20 03:58:04;;;;;;;;;;;;;;;23.18;49.33;101323.75;5074640;28;19912;-36
2022/07/20 04:00:30;;;;;;;;;;;;;;;23.18;50.64;101326.50;5074438;28;19913;-36
2022/07/20 04:02:55;;;;;;;;;;;;;;;23.22;50.84;101337.72;5074669;28;19916;-36
2022/07/20 04:05:21;;;;;;;;;;;;;;;23.21;49.65;101347.94;5074536;28;20383;-36
2022/07/20 04:07:46;;;;;;;;;;;;;;;23.23;51.44;101342.94;5074176;28;19916;-36
2022/07/20 04:10:11;;;;;;;;;;;;;;;23.25;49.70;101348.97;5074381;28;19913;-36
2022/07/20 04:12:36;;;;;;;;;;;;;;;23.27;50.12;101351.41;5074414;28;20276;-36
2022/07/20 04:15:02;;;;;;;;;;;;;;;23.25;48.65;101357.25;5074100;28;20353;-36
2022/07/20 04:17:28;;;;;;;;;;;;;;;23.29;50.22;101363.00;5074792;28;20352;-36
2022/07/20 04:19:53;;;;;;;;;;;;;;;23.27;49.97;101365.22;5074432;28;19973;-37
2022/07/20 04:22:18;;;;;;;;;;;;;;;23.26;50.53;101358.88;5073975;28;19912;-37
2022/07/20 04:24:44;;;;;;;;;;;;;;;23.27;52.04;101365.22;5074450;28;19926;-36
2022/07/20 04:27:09;;;;;;;;;;;;;;;23.26;54.47;101372.69;5074176;28;19935;-36
2022/07/20 04:29:34;;;;;;;;;;;;;;;23.26;54.66;101375.44;5074085;28;19912;-36
2022/07/20 04:32:00;;;;;;;;;;;;;;;23.24;53.68;101366.66;5073824;28;20352;-36
2022/07/20 04:34:25;;;;;;;;;;;;;;;23.26;52.79;101369.09;5073744;28;19912;-37
2022/07/20 04:36:51;;;;;;;;;;;;;;;23.25;52.24;101381.25;5073866;28;20420;-37
2022/07/20 04:39:16;;;;;;;;;;;;;;;23.29;55.78;101374.03;5073309;28;20040;-36
2022/07/20 04:41:41;;;;;;;;;;;;;;;23.33;54.99;101375.88;5073921;28;20007;-37
2022/07/20 04:44:07;;;;;;;;;;;;;;;23.38;55.29;101384.06;5073291;28;19912;-36
2022/07/20 04:46:32;;;;;;;;;;;;;;;23.45;55.98;101380.88;5074025;28;19930;-36
2022/07/20 04:48:58;;;;;;;;;;;;;;;23.50;58.25;101383.56;5073519;28;19913;-36
2022/07/20 04:51:23;;;;;;;;;;;;;;;23.51;56.10;101395.41;5073550;28;19923;-36
2022/07/20 04:53:48;;;;;;;;;;;;;;;23.50;56.50;101394.59;5074089;28;19916;-36
2022/07/20 04:56:14;;;;;;;;;;;;;;;23.54;56.64;101400.31;5073122;28;19916;-36
2022/07/20 04:58:39;;;;;;;;;;;;;;;23.60;55.48;101404.63;5073095;28;20250;-36
2022/07/20 05:01:04;;;;;;;;;;;;;;;23.66;54.29;101400.66;5072660;28;19999;-37
2022/07/20 05:03:29;;;;;;;;;;;;;;;23.68;55.38;101406.72;5073577;28;20011;-36
2022/07/20 05:05:55;;;;;;;;;;;;;;;23.68;56.44;101408.66;5073780;28;19912;-36
2022/07/20 05:08:20;;;;;;;;;;;;;;;23.70;56.08;101409.16;5073539;28;19930;-37
2022/07/20 05:10:45;;;;;;;;;;;;;;;23.72;54.33;101404.97;5073055;28;19912;-36
2022/07/20 05:13:10;;;;;;;;;;;;;;;23.75;55.52;101401.59;5073751;28;19912;-36
2022/07/20 05:15:35;;;;;;;;;;;;;;;23.76;56.30;101397.69;5072925;28;19934;-36
2022/07/20 05:18:01;;;;;;;;;;;;;;;23.75;57.49;101390.53;5073131;28;20353;-36
2022/07/20 05:20:26;;;;;;;;;;;;;;;23.73;58.29;101389.22;5073194;28;19916;-36
2022/07/20 05:22:51;;;;;;;;;;;;;;;23.67;57.90;101394.03;5074001;28;20340;-36
2022/07/20 05:25:16;;;;;;;;;;;;;;;23.69;57.49;101397.31;5073761;28;19920;-37
2022/07/20 05:27:41;;;;;;;;;;;;;;;23.73;57.94;101401.09;5073447;28;19912;-37
2022/07/20 05:30:07;;;;;;;;;;;;;;;23.80;57.05;101400.69;5073058;28;20361;-37
2022/07/20 05:32:32;;;;;;;;;;;;;;;23.85;59.63;101404.16;5073047;28;19912;-36
2022/07/20 05:34:57;;;;;;;;;;;;;;;23.82;58.43;101418.59;5072733;28;19912;-36
2022/07/20 05:37:23;;;;;;;;;;;;;;;23.80;60.10;101433.81;5073747;28;19981;-36
2022/07/20 05:39:48;;;;;;;;;;;;;;;23.82;58.60;101437.09;5072965;28;20321;-36
2022/07/20 05:42:13;;;;;;;;;;;;;;;23.88;59.77;101442.22;5072711;28;19923;-36
2022/07/20 05:44:39;;;;;;;;;;;;;;;23.93;58.30;101448.75;5072749;28;20006;-36
2022/07/20 05:47:06;;;;;;;;;;;;;;;23.95;58.48;101452.03;5073652;28;19913;-37
2022/07/20 05:49:32;;;;;;;;;;;;;;;24.00;57.26;101458.25;5073154;28;19912;-36
2022/07/20 05:51:57;;;;;;;;;;;;;;;24.06;57.95;101470.03;5073405;28;20258;-36
2022/07/20 05:54:23;;;;;;;;;;;;;;;24.09;58.43;101477.72;5071389;28;19923;-36
2022/07/20 05:56:48;;;;;;;;;;;;;;;24.11;57.49;101486.53;5072829;28;20026;-37
2022/07/20 05:59:13;;;;;;;;;;;;;;;24.16;58.48;101480.91;5072473;28;19916;-37
2022/07/20 06:01:43;;;;;;;;;;;;;;;24.24;57.36;101488.44;5073035;28;19967;-36
2022/07/20 06:04:08;;;;;;;;;;;;;;;24.34;57.27;101491.00;5073084;28;20246;-37
2022/07/20 06:06:34;;;;;;;;;;;;;;;24.44;56.63;101498.28;5072643;28;19920;-36
2022/07/20 06:08:59;;;;;;;;;;;;;;;24.52;56.87;101510.59;5072547;28;19920;-37
2022/07/20 06:11:24;;;;;;;;;;;;;;;24.56;56.98;101511.59;5073060;28;19919;-37
2022/07/20 06:13:49;;;;;;;;;;;;;;;24.61;57.30;101506.78;5076026;28;19912;-37
2022/07/20 06:16:14;;;;;;;;;;;;;;;24.63;56.82;101512.00;5076411;28;19923;-36
2022/07/20 06:18:40;;;;;;;;;;;;;;;24.63;57.21;101521.09;5076272;28;19919;-36
2022/07/20 06:21:05;;;;;;;;;;;;;;;24.62;56.55;101530.53;5075875;28;19912;-37
2022/07/20 06:23:30;;;;;;;;;;;;;;;24.56;56.78;101537.31;5091637;28;19913;-36
2022/07/20 06:25:55;;;;;;;;;;;;;;;24.52;56.25;101539.03;5076939;28;19974;-37
2022/07/20 06:28:20;;;;;;;;;;;;;;;24.47;57.37;101546.63;5076798;28;19913;-36
2022/07/20 06:30:46;;;;;;;;;;;;;;;24.47;55.94;101541.09;5076048;28;19947;-37
2022/07/20 06:33:11;;;;;;;;;;;;;;;24.46;56.65;101542.25;5076208;28;20000;-36
2022/07/20 06:35:36;;;;;;;;;;;;;;;24.44;57.17;101552.75;5075958;28;19927;-36
2022/07/20 06:38:02;;;;;;;;;;;;;;;24.49;56.86;101555.41;5076323;28;20021;-36
2022/07/20 06:40:27;;;;;;;;;;;;;;;24.59;55.56;101571.81;5076209;28;20398;-37
2022/07/20 06:42:52;;;;;;;;;;;;;;;24.62;56.71;101573.97;5076297;28;19916;-37
2022/07/20 06:45:17;;;;;;;;;;;;;;;24.59;55.48;101591.16;5075710;28;19998;-37
2022/07/20 06:47:43;;;;;;;;;;;;;;;24.50;56.81;101593.84;5076502;28;19961;-37
2022/07/20 06:50:08;;;;;;;;;;;;;;;24.41;58.12;101609.50;5075646;28;19912;-36
2022/07/20 06:52:34;;;;;;;;;;;;;;;24.36;57.18;101606.84;5075913;28;19965;-37
2022/07/20 06:54:59;;;;;;;;;;;;;;;24.35;57.33;101633.63;5076303;28;20025;-36
2022/07/20 06:57:24;;;;;;;;;;;;;;;24.32;57.70;101628.69;5075479;28;20377;-36
2022/07/20 06:59:50;;;;;;;;;;;;;;;24.34;57.33;101633.91;5075441;28;20003;-36
2022/07/20 07:02:15;;;;;;;;;;;;;;;24.35;56.28;101628.09;5075723;28;20319;-37
2022/07/20 07:04:40;;;;;;;;;;;;;;;24.47;56.36;101612.97;5074777;28;19916;-37
2022/07/20 07:07:06;;;;;;;;;;;;;;;24.56;58.45;101622.19;5074977;28;19912;-37
2022/07/20 07:09:31;;;;;;;;;;;;;;;24.58;56.76;101619.94;5075103;28;19970;-36
2022/07/20 07:11:56;;;;;;;;;;;;;;;24.61;56.70;101619.34;5074605;28;19916;-36
2022/07/20 07:14:22;;;;;;;;;;;;;;;24.64;56.51;101619.53;5075306;28;19913;-37
2022/07/20 07:16:47;;;;;;;;;;;;;;;24.69;56.95;101620.53;5075379;28;20276;-37
2022/07/20 07:19:12;;;;;;;;;;;;;;;24.73;56.94;101625.16;5075618;28;20281;-36
2022/07/20 07:21:37;;;;;;;;;;;;;;;24.74;56.79;101612.97;5075210;28;19912;-37
2022/07/20 07:24:03;;;;;;;;;;;;;;;24.80;56.09;101624.75;5073889;28;19928;-37
2022/07/20 07:26:28;;;;;;;;;;;;;;;24.91;55.89;101629.75;5074086;28;19923;-37
2022/07/20 07:28:53;;;;;;;;;;;;;;;25.11;55.20;101628.53;5074550;28;19928;-37
2022/07/20 07:31:19;;;;;;;;;;;;;;;25.22;55.74;101623.59;5075241;28;19913;-37
2022/07/20 07:33:44;;;;;;;;;;;;;;;25.37;55.28;101633.50;5074634;28;20007;-37
2022/07/20 07:36:09;;;;;;;;;;;;;;;25.52;55.26;101644.22;5074655;28;20300;-37
2022/07/20 07:38:34;;;;;;;;;;;;;;;25.64;54.15;101655.56;5074659;28;19927;-37
2022/07/20 07:41:00;;;;;;;;;;;;;;;25.71;54.74;101662.63;5075338;28;19916;-37
2022/07/20 07:43:25;;;;;;;;;;;;;;;25.72;54.34;101673.41;5075059;28;19912;-37
2022/07/20 07:45:50;;;;;;;;;;;;;;;25.76;53.74;101673.59;5074323;28;20424;-37
2022/07/20 07:48:16;;;;;;;;;;;;;;;25.82;54.17;101681.50;5074775;28;20365;-37
2022/07/20 07:50:41;;;;;;;;;;;;;;;25.88;53.74;101679.41;5074992;28;20008;-37
2022/07/20 07:53:07;;;;;;;;;;;;;;;25.91;53.89;101676.84;5073747;28;19923;-37
2022/07/20 07:55:33;;;;;;;;;;;;;;;25.90;53.60;101686.25;5075171;28;20253;-35
2022/07/20 07:57:58;;;;;;;;;;;;;;;25.85;53.81;101686.38;5074309;28;19932;-36
2022/07/20 08:00:23;;;;;;;;;;;;;;;25.85;53.80;101683.63;5073979;28;19920;-37
2022/07/20 08:02:49;;;;;;;;;;;;;;;25.91;53.65;101679.63;5074654;28;19912;-37
2022/07/20 08:05:14;;;;;;;;;;;;;;;26.02;53.93;101673.81;5074329;28;19912;-37
2022/07/20 08:07:40;;;;;;;;;;;;;;;26.10;53.29;101681.34;5074817;28;19973;-37
2022/07/20 08:10:06;;;;;;;;;;;;;;;26.17;53.11;101671.47;5074132;28;19912;-37
2022/07/20 08:12:31;;;;;;;;;;;;;;;26.25;52.86;101667.09;5073241;28;19935;-37
2022/07/20 08:14:56;;;;;;;;;;;;;;;26.30;52.30;101652.28;5073745;28;20284;-36
2022/07/20 08:17:21;;;;;;;;;;;;;;;26.40;52.62;101639.00;5074147;28;19938;-37
2022/07/20 08:19:46;;;;;;;;;;;;;;;26.51;51.88;101647.88;5073963;28;20337;-37
2022/07/20 08:22:12;;;;;;;;;;;;;;;26.65;51.20;101645.81;5073942;28;20053;-37
2022/07/20 08:24:37;;;;;;;;;;;;;;;26.79;51.07;101637.38;5074227;28;19923;-37
2022/07/20 08:27:02;;;;;;;;;;;;;;;26.94;50.41;101642.47;5074116;28;19924;-37
2022/07/20 08:29:27;;;;;;;;;;;;;;;27.04;49.64;101640.53;5074006;28;19912;-37
2022/07/20 08:31:53;;;;;;;;;;;;;;;27.07;49.01;101639.88;5074261;28;19916;-37
2022/07/20 08:34:18;;;;;;;;;;;;;;;27.08;49.15;101652.66;5073457;28;20323;-37
2022/07/20 08:36:43;;;;;;;;;;;;;;;27.11;49.23;101660.34;5073692;28;20444;-37
2022/07/20 08:39:08;;;;;;;;;;;;;;;27.13;49.23;101663.59;5073979;28;19946;-37
2022/07/20 08:41:33;;;;;;;;;;;;;;;27.16;48.77;101676.84;5073938;28;19913;-37
2022/07/20 08:43:59;;;;;;;;;;;;;;;27.18;48.17;101685.66;5073432;28;19919;-36
2022/07/20 08:46:24;;;;;;;;;;;;;;;27.17;48.21;101692.34;5073438;28;19965;-37
2022/07/20 08:48:51;;;;;;;;;;;;;;;27.18;48.39;101686.50;5073494;28;20281;-37
2022/07/20 08:51:16;;;;;;;;;;;;;;;27.23;48.26;101690.22;5074323;28;20300;-37
2022/07/20 08:53:42;;;;;;;;;;;;;;;27.32;48.34;101691.06;5073850;28;19916;-36
2022/07/20 08:56:07;;;;;;;;;;;;;;;27.38;47.92;101681.47;5073582;28;19912;-37
2022/07/20 08:58:32;;;;;;;;;;;;;;;27.33;48.08;101674.09;5073052;28;19913;-37
2022/07/20 09:00:57;;;;;;;;;;;;;;;27.35;47.94;101657.13;5073396;28;19962;-37
2022/07/20 09:03:23;;;;;;;;;;;;;;;27.51;47.97;101657.44;5073281;28;19920;-37
2022/07/20 09:06:04;;;;;;;;;;;;;;;27.74;47.16;101661.72;5074095;28;20011;-37
2022/07/20 09:08:29;;;;;;;;;;;;;;;27.96;47.05;101652.38;5073717;28;20366;-37
2022/07/20 09:10:54;;;;;;;;;;;;;;;28.15;46.46;101630.59;5072939;28;19912;-37
2022/07/20 09:13:21;;;;;;;;;;;;;;;28.38;46.52;101642.34;5073150;28;19927;-37
2022/07/20 09:15:48;;;;;;;;;;;;;;;28.55;45.38;101654.53;5073583;28;20351;-37
2022/07/20 09:18:33;;;;;;;;;;;;;;;28.52;45.33;101688.59;5088629;28;19962;-37
2022/07/20 09:21:05;;;;;;;;;;;;;;;28.43;44.94;101696.97;5073057;28;19919;-37
2022/07/20 09:23:33;;;;;;;;;;;;;;;28.33;44.70;101691.72;5072898;28;19919;-37
2022/07/20 09:26:05;;;;;;;;;;;;;;;28.40;45.58;101706.81;5073522;28;20011;-37
2022/07/20 09:28:34;;;;;;;;;;;;;;;28.60;44.88;101726.69;5072907;28;19912;-37
2022/07/20 09:30:59;;;;;;;;;;;;;;;28.71;45.39;101733.53;5073067;28;20002;-37
2022/07/20 09:33:28;;;;;;;;;;;;;;;28.72;45.23;101743.53;5072953;28;19916;-37
2022/07/20 09:35:57;;;;;;;;;;;;;;;28.59;44.92;101753.69;5063306;28;19926;-37
2022/07/20 09:38:33;;;;;;;;;;;;;;;28.53;45.25;101760.59;5072742;28;19916;-37
2022/07/20 09:40:58;;;;;;;;;;;;;;;28.57;45.85;101755.19;5072953;28;20345;-37
2022/07/20 09:43:28;;;;;;;;;;;;;;;28.70;45.72;101738.28;5071858;28;19920;-37
2022/07/20 09:45:54;;;;;;;;;;;;;;;28.82;45.79;101745.13;5072563;28;20332;-37
2022/07/20 09:48:23;;;;;;;;;;;;;;;28.81;45.80;101737.94;5076186;28;20006;-37
2022/07/20 09:50:48;;;;;;;;;;;;;;;28.77;45.12;101729.41;5075725;28;19917;-37
2022/07/20 09:53:14;;;;;;;;;;;;;;;28.90;45.32;101722.00;5075827;28;20344;-37
2022/07/20 09:55:41;;;;;;;;;;;;;;;29.08;44.48;101712.44;5077287;28;19913;-37
2022/07/20 09:58:06;;;;;;;;;;;;;;;29.17;43.59;101712.38;5076328;28;20284;-37
2022/07/20 10:00:34;;;;;;;;;;;;;;;29.26;44.12;101721.50;5076153;28;19916;-37
2022/07/20 10:03:00;;;;;;;;;;;;;;;29.39;43.88;101709.31;5077442;28;19965;-37
2022/07/20 10:05:28;;;;;;;;;;;;;;;29.52;44.05;101707.41;5075726;28;19916;-37
2022/07/20 10:07:53;;;;;;;;;;;;;;;29.62;43.28;101714.56;5076749;28;19944;-37
2022/07/20 10:10:19;;;;;;;;;;;;;;;29.68;43.00;101711.25;5075795;28;19962;-37
2022/07/20 10:12:44;;;;;;;;;;;;;;;29.78;43.02;101721.19;5075886;28;19916;-35
2022/07/20 10:15:14;;;;;;;;;;;;;;;29.83;42.21;101729.34;5075637;28;20380;-35
2022/07/20 10:17:41;;;;;;;;;;;;;;;29.71;42.55;101726.47;5075682;28;19923;-37
2022/07/20 10:20:07;;;;;;;;;;;;;;;29.60;42.69;101733.63;5076055;28;19912;-37
2022/07/20 10:22:32;;;;;;;;;;;;;;;29.55;42.32;101737.41;5075042;28;19916;-37
2022/07/20 10:25:12;;;;;;;;;;;;;;;29.51;42.22;101739.22;5075427;28;20266;-37
2022/07/20 10:27:37;;;;;;;;;;;;;;;29.61;42.14;101740.81;5076448;28;20276;-37
2022/07/20 10:30:16;;;;;;;;;;;;;;;29.71;41.85;101734.84;5074931;28;19971;-37
2022/07/20 10:32:52;;;;;;;;;;;;;;;29.84;41.86;101735.72;5075289;28;19916;-37
2022/07/20 10:35:25;;;;;;;;;;;;;;;29.76;41.68;101718.72;5074117;28;19920;-37
2022/07/20 10:37:50;;;;;;;;;;;;;;;29.49;42.08;101731.19;5073610;28;19923;-37
2022/07/20 10:40:17;;;;;;;;;;;;;;;29.27;42.48;101736.25;5075743;28;19916;-37
2022/07/20 10:42:42;;;;;;;;;;;;;;;29.03;42.51;101734.09;5076245;28;19912;-37
2022/07/20 10:45:13;;;;;;;;;;;;;;;28.96;42.71;101727.09;5074808;28;20002;-37
2022/07/20 10:47:58;;;;;;;;;;;;;;;29.11;42.75;101725.69;5075336;28;19970;-37
2022/07/20 10:50:23;;;;;;;;;;;;;;;29.33;41.77;101730.16;5075625;28;19916;-37
2022/07/20 10:52:52;;;;;;;;;;;;;;;29.33;42.37;101721.81;5075094;28;19923;-37
2022/07/20 10:55:32;;;;;;;;;;;;;;;29.31;42.51;101720.50;5075784;28;19916;-37
2022/07/20 10:57:58;;;;;;;;;;;;;;;29.34;41.94;101717.88;5075468;28;19919;-37
2022/07/20 11:00:28;;;;;;;;;;;;;;;29.40;42.10;101705.38;5074613;28;19916;-35
2022/07/20 11:02:53;;;;;;;;;;;;;;;29.68;41.74;101710.44;5075138;28;19999;-36
2022/07/20 11:05:20;;;;;;;;;;;;;;;29.90;40.76;101723.22;5076002;28;20006;-37
2022/07/20 11:07:45;;;;;;;;;;;;;;;30.08;40.74;101718.28;5075397;28;20284;-37
2022/07/20 11:10:24;;;;;;;;;;;;;;;30.23;40.55;101732.44;5075325;28;19919;-36
2022/07/20 11:12:55;;;;;;;;;;;;;;;30.34;40.05;101723.63;5075073;28;20427;-36
2022/07/20 11:15:21;;;;;;;;;;;;;;;30.46;40.48;101718.91;5075360;28;20363;-36
2022/07/20 11:17:46;;;;;;;;;;;;;;;30.61;39.89;101730.56;5075415;28;19986;-36
2022/07/20 11:20:15;;;;;;;;;;;;;;;30.64;39.89;101725.09;5075177;28;20327;-36
2022/07/20 11:22:40;;;;;;;;;;;;;;;30.56;40.63;101720.44;5075086;28;19912;-36
2022/07/20 11:25:06;;;;;;;;;;;;;;;30.67;40.23;101706.84;5074724;28;19982;-36
2022/07/20 11:27:31;;;;;;;;;;;;;;;30.80;39.95;101713.31;5074956;28;19916;-36
2022/07/20 11:29:56;;;;;;;;;;;;;;;30.88;39.85;101713.16;5074960;28;19912;-36
2022/07/20 11:32:21;;;;;;;;;;;;;;;30.99;39.95;101711.56;5075589;28;20022;-36
2022/07/20 11:34:51;;;;;;;;;;;;;;;31.14;39.89;101715.63;5075114;28;20406;-36
2022/07/20 11:37:17;;;;;;;;;;;;;;;31.24;39.42;101709.56;5075195;28;19912;-36
2022/07/20 11:39:43;;;;;;;;;;;;;;;31.34;39.97;101713.88;5074752;28;19919;-37
2022/07/20 11:42:13;;;;;;;;;;;;;;;31.52;40.13;101709.63;5075044;28;20361;-36
2022/07/20 11:44:39;;;;;;;;;;;;;;;31.71;39.37;101706.22;5075130;28;19955;-36
2022/07/20 11:47:04;;;;;;;;;;;;;;;31.69;38.05;101702.97;5074758;28;20008;-36
2022/07/20 11:49:30;;;;;;;;;;;;;;;31.71;38.50;101699.81;5074520;28;19922;-36
2022/07/20 11:51:59;;;;;;;;;;;;;;;31.79;39.10;101696.06;5075533;28;20001;-36
2022/07/20 11:54:29;;;;;;;;;;;;;;;31.96;38.48;101706.16;5074398;28;19917;-36
2022/07/20 11:56:54;;;;;;;;;;;;;;;32.09;38.22;101690.13;5074299;28;19916;-36
2022/07/20 11:59:20;;;;;;;;;;;;;;;32.05;37.38;101693.63;5074284;28;19927;-36
2022/07/20 12:01:47;;;;;;;;;;;;;;;32.17;38.24;101695.56;5074241;28;19970;-36
2022/07/20 12:04:14;;;;;;;;;;;;;;;32.19;38.10;101700.81;5075076;28;19912;-36
2022/07/20 12:06:40;;;;;;;;;;;;;;;32.24;37.25;101714.53;5074823;28;19966;-36
2022/07/20 12:09:19;;;;;;;;;;;;;;;32.31;36.60;101717.53;5074857;28;19916;-36
2022/07/20 12:11:58;;;;;;;;;;;;;;;32.30;36.40;101718.69;5074236;28;20035;-37
2022/07/20 12:14:32;;;;;;;;;;;;;;;32.33;37.25;101719.97;5074478;28;20372;-37
2022/07/20 12:17:09;;;;;;;;;;;;;;;32.36;36.71;101730.47;5073925;28;19919;-37
2022/07/20 12:19:34;;;;;;;;;;;;;;;32.39;36.02;101724.97;5074246;28;19916;-37
2022/07/20 12:22:00;;;;;;;;;;;;;;;32.30;36.39;101727.06;5074499;28;19919;-37
2022/07/20 12:24:25;;;;;;;;;;;;;;;32.01;35.68;101715.13;5074068;28;19913;-37
2022/07/20 12:27:02;;;;;;;;;;;;;;;32.01;36.21;101720.72;5073632;28;19917;-37
2022/07/20 12:29:27;;;;;;;;;;;;;;;32.01;36.42;101723.50;5073782;28;20317;-37
2022/07/20 12:31:59;;;;;;;;;;;;;;;31.86;36.40;101715.84;5073482;28;19942;-37
2022/07/20 12:34:24;;;;;;;;;;;;;;;31.74;36.72;101715.88;5073521;28;20061;-37